Four Mile Lake, Michigan
Current Conditions -  °F | °C
As of 2:53 AM on Monday 22 Dec 2014 (Local Time) from KARB Reporting Station
Haze Haze  
Wind Chill: 20°   Ceiling: Unl
Heat Index: 27°   Visibility: 5mi
Dew Point: 23°   Wind: 6mph
Humidity: 85%   Direction: 100°E
Pressure: 30.13"   Gusts: NA
Location:  42.3528°N, 83.8974°W
Report Text: KARB 220753Z AUTO 10005KT 5SM BR CLR M03/M05 A3013 RMK AO2 SLP212 T10281050
Loading
Personal Weather Stations






























Interactive Weather Map New forecast layout! Learn more

10-Day Weather Forecast

Advertisements
Track Severe Weather on mobile